Iron Mountain, MI

5:21 PM CDT on August 30, 2014 (GMT -0500)
Ford | Change Station
CLOSE
Current Station
Airport
Location: Iron Mountain,
Elevation: 1181 ft
Nearby Weather Stations

Elev 1181 ft 45.82 °N, 88.11 °W | Updated 27 minutes ago

Light Rain
Light Rain
63 °F
Feels Like 63 °F
N
14
Wind Variable Wind from NW

Today
High -- | Low -- °F
--% Chance of Precip.
Yesterday
High -- | Low -- °F
Precip. -- in
6:10 AM 7:34 PM
Waxing Crescent, 25% visible
Pressure 29.80 in
Visibility 10.0 miles
Clouds Overcast 1100 ft
Dew Point 59 °F
Humidity 87%
Rainfall 0.72 in
Snow Depth Not available.
UV 1 out of 12
Pollen .20 out of 12
Air Quality Not available.
Flu Activity Not available.
METAR KIMT 302154Z AUTO 32012KT 10SM -RA OVC011 17/15 A2980 RMK AO2 RAB42 SLP089 P0000 T01720150 TSNO

More Conditions Fewer Conditions

Pressure 29.80 in
Visibility 10.0 miles
Clouds Overcast 1100 ft
Dew Point 59 °F
Humidity 87%
Rainfall 0.72 in
Snow Depth Not available.
UV 1 out of 12
Pollen .20 out of 12
Air Quality Not available.
Flu Activity Not available.
METAR KIMT 302154Z AUTO 32012KT 10SM -RA OVC011 17/15 A2980 RMK AO2 RAB42 SLP089 P0000 T01720150 TSNO

More Conditions Fewer Conditions

10-Day Weather Forecast

Almanac

Astronomy

Aug. 30, 2014 Rise Set
Actual Time 6:10 AM CDT 7:34 PM CDT
Civil Twilight 5:39 AM CDT 8:04 PM CDT
Nautical Twilight 5:02 AM CDT 8:42 PM CDT
Astronomical Twilight 4:22 AM CDT 9:22 PM CDT
Moon 11:14 AM CDT 9:50 PM CDT
Length of Visible Light 14h 25m
Length of Day
13h 23m
Tomorrow will be 3m 5s shorter.
Waxing Crescent, 25% of the Moon is Illuminated
Today
Waxing Crescent
Sep 2
First Quarter
Sep 8
Full
Sep 15
Last Quarter
Sep 24
New

Today's Extremes

State Highs State Lows

Community

WunderPhotos

Upload Photos

1,748,657 photos uploaded!

WunderBlogs® & News

Nearby

Snow Depth

Station Depth Elevation
No new snow has been reported.

Earthquake Activity

City Distance Mag. Time & Date
No recent earthquake activity has been reported nearby.
Minimum magnitude displayed is 2.5.

Coastal Water Temperatures

Place Temperature
No Stations Reporting

Nearby Weather Stations